Rimini, South Carolina
Current Conditions -  °F | °C
As of 5:58 PM on Saturday 20 Dec 2014 (Local Time) from KSSC Reporting Station
Overcast Overcast  
Wind Chill: 41°   Ceiling: 2300
Heat Index: 46°   Visibility: 10mi
Dew Point: 41°   Wind: 9mph
Humidity: 84%   Direction: 50°NE
Pressure: 30.21"   Gusts: NA
Location:  33.7445°N, 80.5249°W
Report Text: KSSC 202258Z AUTO 05008KT 10SM OVC023 08/05 A3021 RMK AO2 SLP233 T00750049 $
Loading
Personal Weather Stations






























Interactive Weather Map New forecast layout! Learn more

10-Day Weather Forecast

Advertisements
Track Severe Weather on mobile